sensor_id;sensor_type;location;lat;lon;timestamp;P1;durP1;ratioP1;P2;durP2;ratioP2
64868;SDS011;51349;52.424;10.840;2022-10-31T00:02:04;11.60;;;5.70;;
64868;SDS011;51349;52.424;10.840;2022-10-31T00:07:04;9.68;;;5.30;;
64868;SDS011;51349;52.424;10.840;2022-10-31T00:12:05;9.07;;;5.63;;
64868;SDS011;51349;52.424;10.840;2022-10-31T00:17:05;9.23;;;5.50;;
64868;SDS011;51349;52.424;10.840;2022-10-31T00:22:06;7.20;;;5.20;;
64868;SDS011;51349;52.424;10.840;2022-10-31T00:27:07;7.70;;;5.20;;
64868;SDS011;51349;52.424;10.840;2022-10-31T00:32:07;9.80;;;5.75;;
64868;SDS011;51349;52.424;10.840;2022-10-31T00:37:08;6.53;;;5.30;;
64868;SDS011;51349;52.424;10.840;2022-10-31T00:42:08;9.07;;;5.20;;
64868;SDS011;51349;52.424;10.840;2022-10-31T00:47:09;6.65;;;4.93;;
64868;SDS011;51349;52.424;10.840;2022-10-31T00:52:10;7.07;;;5.80;;
64868;SDS011;51349;52.424;10.840;2022-10-31T00:57:10;12.60;;;5.35;;
64868;SDS011;51349;52.424;10.840;2022-10-31T01:02:11;9.02;;;5.82;;
64868;SDS011;51349;52.424;10.840;2022-10-31T01:07:11;9.70;;;5.43;;
64868;SDS011;51349;52.424;10.840;2022-10-31T01:12:13;7.85;;;5.68;;
64868;SDS011;51349;52.424;10.840;2022-10-31T01:17:14;10.50;;;5.88;;
64868;SDS011;51349;52.424;10.840;2022-10-31T01:22:15;12.20;;;5.68;;
64868;SDS011;51349;52.424;10.840;2022-10-31T01:27:15;7.78;;;5.30;;
64868;SDS011;51349;52.424;10.840;2022-10-31T01:32:16;8.95;;;5.95;;
64868;SDS011;51349;52.424;10.840;2022-10-31T01:37:16;8.15;;;5.65;;
64868;SDS011;51349;52.424;10.840;2022-10-31T01:42:18;7.75;;;5.50;;
64868;SDS011;51349;52.424;10.840;2022-10-31T01:47:26;8.73;;;5.68;;
64868;SDS011;51349;52.424;10.840;2022-10-31T01:52:37;11.48;;;5.82;;
64868;SDS011;51349;52.424;10.840;2022-10-31T01:57:45;10.85;;;6.50;;
64868;SDS011;51349;52.424;10.840;2022-10-31T02:02:48;9.68;;;5.57;;
64868;SDS011;51349;52.424;10.840;2022-10-31T02:07:55;9.25;;;6.00;;
64868;SDS011;51349;52.424;10.840;2022-10-31T02:13:01;8.13;;;5.97;;
64868;SDS011;51349;52.424;10.840;2022-10-31T02:18:04;13.38;;;6.55;;
64868;SDS011;51349;52.424;10.840;2022-10-31T02:39:10;14.60;;;9.38;;
64868;SDS011;51349;52.424;10.840;2022-10-31T02:49:59;19.25;;;11.57;;
64868;SDS011;51349;52.424;10.840;2022-10-31T03:00:22;23.70;;;13.35;;
64868;SDS011;51349;52.424;10.840;2022-10-31T03:10:46;20.52;;;12.02;;
64868;SDS011;51349;52.424;10.840;2022-10-31T03:15:51;20.40;;;12.30;;
64868;SDS011;51349;52.424;10.840;2022-10-31T03:20:58;22.45;;;13.90;;
64868;SDS011;51349;52.424;10.840;2022-10-31T03:26:14;21.35;;;14.18;;
64868;SDS011;51349;52.424;10.840;2022-10-31T03:31:17;23.15;;;14.32;;
64868;SDS011;51349;52.424;10.840;2022-10-31T03:36:22;26.35;;;14.82;;
64868;SDS011;51349;52.424;10.840;2022-10-31T03:41:23;25.90;;;15.50;;
64868;SDS011;51349;52.424;10.840;2022-10-31T03:46:29;29.25;;;16.88;;
64868;SDS011;51349;52.424;10.840;2022-10-31T03:57:00;36.17;;;18.45;;
64868;SDS011;51349;52.424;10.840;2022-10-31T04:02:07;38.03;;;19.92;;
64868;SDS011;51349;52.424;10.840;2022-10-31T04:07:13;47.10;;;22.83;;
64868;SDS011;51349;52.424;10.840;2022-10-31T04:12:15;46.17;;;23.58;;
64868;SDS011;51349;52.424;10.840;2022-10-31T04:17:17;50.13;;;25.60;;
64868;SDS011;51349;52.424;10.840;2022-10-31T04:22:20;58.13;;;27.70;;
64868;SDS011;51349;52.424;10.840;2022-10-31T04:27:21;56.88;;;28.33;;
64868;SDS011;51349;52.424;10.840;2022-10-31T04:32:21;63.13;;;30.10;;
64868;SDS011;51349;52.424;10.840;2022-10-31T04:37:22;57.20;;;29.70;;
64868;SDS011;51349;52.424;10.840;2022-10-31T04:42:23;65.40;;;31.95;;
64868;SDS011;51349;52.424;10.840;2022-10-31T04:47:23;65.03;;;30.55;;
64868;SDS011;51349;52.424;10.840;2022-10-31T04:52:24;66.05;;;30.33;;
64868;SDS011;51349;52.424;10.840;2022-10-31T04:57:24;61.53;;;29.70;;
64868;SDS011;51349;52.424;10.840;2022-10-31T05:02:25;70.38;;;29.35;;
64868;SDS011;51349;52.424;10.840;2022-10-31T05:07:25;61.55;;;28.65;;
64868;SDS011;51349;52.424;10.840;2022-10-31T05:12:26;73.93;;;29.70;;
64868;SDS011;51349;52.424;10.840;2022-10-31T05:17:27;60.28;;;29.70;;
64868;SDS011;51349;52.424;10.840;2022-10-31T05:22:27;66.88;;;31.10;;
64868;SDS011;51349;52.424;10.840;2022-10-31T05:27:28;66.15;;;28.77;;
64868;SDS011;51349;52.424;10.840;2022-10-31T05:32:28;64.43;;;30.92;;
64868;SDS011;51349;52.424;10.840;2022-10-31T05:37:29;69.65;;;30.58;;
64868;SDS011;51349;52.424;10.840;2022-10-31T05:42:30;66.85;;;29.13;;
64868;SDS011;51349;52.424;10.840;2022-10-31T05:47:34;71.30;;;29.73;;
64868;SDS011;51349;52.424;10.840;2022-10-31T05:52:34;56.20;;;26.25;;
64868;SDS011;51349;52.424;10.840;2022-10-31T05:57:35;57.35;;;26.52;;
64868;SDS011;51349;52.424;10.840;2022-10-31T06:02:36;53.13;;;25.42;;
64868;SDS011;51349;52.424;10.840;2022-10-31T06:07:37;52.67;;;24.08;;
64868;SDS011;51349;52.424;10.840;2022-10-31T06:12:37;43.60;;;22.42;;
64868;SDS011;51349;52.424;10.840;2022-10-31T06:17:38;46.78;;;24.10;;
64868;SDS011;51349;52.424;10.840;2022-10-31T06:22:39;45.85;;;23.75;;
64868;SDS011;51349;52.424;10.840;2022-10-31T06:27:40;48.78;;;24.58;;
64868;SDS011;51349;52.424;10.840;2022-10-31T06:32:43;53.45;;;25.40;;
64868;SDS011;51349;52.424;10.840;2022-10-31T06:37:51;45.67;;;23.73;;
64868;SDS011;51349;52.424;10.840;2022-10-31T06:42:59;48.67;;;24.65;;
64868;SDS011;51349;52.424;10.840;2022-10-31T06:48:00;53.92;;;24.08;;
64868;SDS011;51349;52.424;10.840;2022-10-31T06:53:01;45.90;;;23.98;;
64868;SDS011;51349;52.424;10.840;2022-10-31T06:58:01;46.80;;;24.55;;
64868;SDS011;51349;52.424;10.840;2022-10-31T07:03:04;50.65;;;25.20;;
64868;SDS011;51349;52.424;10.840;2022-10-31T07:08:25;52.05;;;25.88;;
64868;SDS011;51349;52.424;10.840;2022-10-31T07:13:26;47.47;;;26.83;;
64868;SDS011;51349;52.424;10.840;2022-10-31T07:18:27;46.88;;;25.60;;
64868;SDS011;51349;52.424;10.840;2022-10-31T07:23:27;47.33;;;26.05;;
64868;SDS011;51349;52.424;10.840;2022-10-31T07:28:28;43.28;;;25.80;;
64868;SDS011;51349;52.424;10.840;2022-10-31T07:33:28;48.28;;;27.00;;
64868;SDS011;51349;52.424;10.840;2022-10-31T07:38:29;47.05;;;27.58;;
64868;SDS011;51349;52.424;10.840;2022-10-31T07:43:30;47.97;;;26.17;;
64868;SDS011;51349;52.424;10.840;2022-10-31T07:48:30;47.83;;;26.88;;
64868;SDS011;51349;52.424;10.840;2022-10-31T07:53:31;46.00;;;24.73;;
64868;SDS011;51349;52.424;10.840;2022-10-31T07:58:31;43.17;;;25.85;;
64868;SDS011;51349;52.424;10.840;2022-10-31T08:03:32;43.50;;;25.33;;
64868;SDS011;51349;52.424;10.840;2022-10-31T08:08:33;43.25;;;26.58;;
64868;SDS011;51349;52.424;10.840;2022-10-31T08:13:33;42.47;;;25.02;;
64868;SDS011;51349;52.424;10.840;2022-10-31T08:18:34;39.85;;;24.42;;
64868;SDS011;51349;52.424;10.840;2022-10-31T08:23:37;41.95;;;25.38;;
64868;SDS011;51349;52.424;10.840;2022-10-31T08:28:38;39.30;;;23.70;;
64868;SDS011;51349;52.424;10.840;2022-10-31T08:33:38;45.80;;;25.20;;
64868;SDS011;51349;52.424;10.840;2022-10-31T08:38:39;43.20;;;24.63;;
64868;SDS011;51349;52.424;10.840;2022-10-31T08:43:40;39.83;;;23.92;;
64868;SDS011;51349;52.424;10.840;2022-10-31T08:48:40;37.90;;;22.90;;
64868;SDS011;51349;52.424;10.840;2022-10-31T08:53:41;35.17;;;22.90;;
64868;SDS011;51349;52.424;10.840;2022-10-31T08:58:41;37.33;;;22.95;;
64868;SDS011;51349;52.424;10.840;2022-10-31T09:03:42;36.47;;;22.63;;
64868;SDS011;51349;52.424;10.840;2022-10-31T09:08:43;43.47;;;23.27;;
64868;SDS011;51349;52.424;10.840;2022-10-31T09:13:43;35.78;;;23.02;;
64868;SDS011;51349;52.424;10.840;2022-10-31T09:18:44;34.13;;;22.08;;
64868;SDS011;51349;52.424;10.840;2022-10-31T09:23:44;35.03;;;21.88;;
64868;SDS011;51349;52.424;10.840;2022-10-31T09:28:45;35.17;;;21.92;;
64868;SDS011;51349;52.424;10.840;2022-10-31T09:33:46;35.08;;;23.10;;
64868;SDS011;51349;52.424;10.840;2022-10-31T09:38:46;30.05;;;21.25;;
64868;SDS011;51349;52.424;10.840;2022-10-31T09:54:45;33.78;;;19.63;;
64868;SDS011;51349;52.424;10.840;2022-10-31T09:59:50;32.42;;;19.38;;
64868;SDS011;51349;52.424;10.840;2022-10-31T10:05:01;26.55;;;18.65;;
64868;SDS011;51349;52.424;10.840;2022-10-31T10:21:02;24.25;;;16.70;;
64868;SDS011;51349;52.424;10.840;2022-10-31T10:26:21;23.33;;;17.10;;
64868;SDS011;51349;52.424;10.840;2022-10-31T10:31:29;21.70;;;15.65;;
64868;SDS011;51349;52.424;10.840;2022-10-31T10:36:42;23.25;;;15.75;;
64868;SDS011;51349;52.424;10.840;2022-10-31T10:41:48;23.77;;;15.73;;
64868;SDS011;51349;52.424;10.840;2022-10-31T10:47:08;19.02;;;15.68;;
64868;SDS011;51349;52.424;10.840;2022-10-31T11:02:49;20.50;;;14.52;;
64868;SDS011;51349;52.424;10.840;2022-10-31T11:07:50;17.10;;;13.75;;
64868;SDS011;51349;52.424;10.840;2022-10-31T11:12:58;18.00;;;14.05;;
64868;SDS011;51349;52.424;10.840;2022-10-31T11:18:05;23.63;;;14.43;;
64868;SDS011;51349;52.424;10.840;2022-10-31T11:23:28;19.52;;;13.52;;
64868;SDS011;51349;52.424;10.840;2022-10-31T11:28:29;20.02;;;13.55;;
64868;SDS011;51349;52.424;10.840;2022-10-31T11:33:35;17.30;;;13.63;;
64868;SDS011;51349;52.424;10.840;2022-10-31T11:38:45;20.30;;;14.60;;
64868;SDS011;51349;52.424;10.840;2022-10-31T11:43:50;18.38;;;12.55;;
64868;SDS011;51349;52.424;10.840;2022-10-31T11:48:54;20.20;;;12.40;;
64868;SDS011;51349;52.424;10.840;2022-10-31T11:53:57;17.08;;;12.18;;
64868;SDS011;51349;52.424;10.840;2022-10-31T11:59:01;17.10;;;12.82;;
64868;SDS011;51349;52.424;10.840;2022-10-31T12:04:07;17.15;;;12.75;;
64868;SDS011;51349;52.424;10.840;2022-10-31T12:25:29;10.38;;;8.48;;
64868;SDS011;51349;52.424;10.840;2022-10-31T12:46:23;8.07;;;6.15;;
64868;SDS011;51349;52.424;10.840;2022-10-31T12:51:39;9.98;;;7.35;;
64868;SDS011;51349;52.424;10.840;2022-10-31T13:07:36;12.18;;;9.02;;
64868;SDS011;51349;52.424;10.840;2022-10-31T13:12:43;12.20;;;9.40;;
64868;SDS011;51349;52.424;10.840;2022-10-31T13:17:48;14.30;;;10.50;;
64868;SDS011;51349;52.424;10.840;2022-10-31T13:33:31;16.02;;;11.48;;
64868;SDS011;51349;52.424;10.840;2022-10-31T13:38:58;17.83;;;13.90;;
64868;SDS011;51349;52.424;10.840;2022-10-31T13:54:45;20.45;;;13.55;;
64868;SDS011;51349;52.424;10.840;2022-10-31T13:59:48;18.15;;;12.50;;
64868;SDS011;51349;52.424;10.840;2022-10-31T14:04:58;19.02;;;11.85;;
64868;SDS011;51349;52.424;10.840;2022-10-31T14:10:06;20.92;;;13.05;;
64868;SDS011;51349;52.424;10.840;2022-10-31T14:15:28;22.13;;;13.30;;
64868;SDS011;51349;52.424;10.840;2022-10-31T14:20:39;22.70;;;14.07;;
64868;SDS011;51349;52.424;10.840;2022-10-31T14:25:41;22.95;;;13.38;;
64868;SDS011;51349;52.424;10.840;2022-10-31T14:30:50;19.90;;;14.43;;
64868;SDS011;51349;52.424;10.840;2022-10-31T14:52:16;18.65;;;13.88;;
64868;SDS011;51349;52.424;10.840;2022-10-31T14:57:20;23.55;;;13.68;;
64868;SDS011;51349;52.424;10.840;2022-10-31T15:07:29;19.85;;;12.68;;
64868;SDS011;51349;52.424;10.840;2022-10-31T15:12:31;18.25;;;12.45;;
64868;SDS011;51349;52.424;10.840;2022-10-31T15:17:33;19.15;;;13.05;;
64868;SDS011;51349;52.424;10.840;2022-10-31T15:22:34;24.45;;;13.50;;
64868;SDS011;51349;52.424;10.840;2022-10-31T15:27:34;23.13;;;13.25;;
64868;SDS011;51349;52.424;10.840;2022-10-31T15:32:35;21.58;;;13.07;;
64868;SDS011;51349;52.424;10.840;2022-10-31T15:37:36;21.42;;;13.52;;
64868;SDS011;51349;52.424;10.840;2022-10-31T15:42:39;21.02;;;12.95;;
64868;SDS011;51349;52.424;10.840;2022-10-31T15:48:00;19.02;;;12.73;;
64868;SDS011;51349;52.424;10.840;2022-10-31T15:53:24;20.02;;;13.07;;
64868;SDS011;51349;52.424;10.840;2022-10-31T15:58:27;20.33;;;13.48;;
64868;SDS011;51349;52.424;10.840;2022-10-31T16:03:29;18.20;;;12.68;;
64868;SDS011;51349;52.424;10.840;2022-10-31T16:08:32;22.80;;;14.48;;
64868;SDS011;51349;52.424;10.840;2022-10-31T16:13:35;19.05;;;12.45;;
64868;SDS011;51349;52.424;10.840;2022-10-31T16:18:40;22.65;;;15.38;;
64868;SDS011;51349;52.424;10.840;2022-10-31T16:23:45;17.98;;;13.48;;
64868;SDS011;51349;52.424;10.840;2022-10-31T16:28:58;31.10;;;18.13;;
64868;SDS011;51349;52.424;10.840;2022-10-31T16:34:13;21.80;;;14.43;;
64868;SDS011;51349;52.424;10.840;2022-10-31T16:39:20;20.77;;;14.48;;
64868;SDS011;51349;52.424;10.840;2022-10-31T16:44:21;22.85;;;16.25;;
64868;SDS011;51349;52.424;10.840;2022-10-31T16:49:24;27.20;;;15.10;;
64868;SDS011;51349;52.424;10.840;2022-10-31T16:54:24;20.40;;;14.23;;
64868;SDS011;51349;52.424;10.840;2022-10-31T16:59:25;22.00;;;14.18;;
64868;SDS011;51349;52.424;10.840;2022-10-31T17:04:27;24.95;;;15.10;;
64868;SDS011;51349;52.424;10.840;2022-10-31T17:09:27;23.65;;;14.45;;
64868;SDS011;51349;52.424;10.840;2022-10-31T17:14:31;28.08;;;16.67;;
64868;SDS011;51349;52.424;10.840;2022-10-31T17:19:33;23.80;;;15.68;;
64868;SDS011;51349;52.424;10.840;2022-10-31T17:24:34;23.73;;;17.20;;
64868;SDS011;51349;52.424;10.840;2022-10-31T17:29:34;25.73;;;16.27;;
64868;SDS011;51349;52.424;10.840;2022-10-31T17:34:35;24.42;;;15.73;;
64868;SDS011;51349;52.424;10.840;2022-10-31T17:39:35;22.02;;;14.98;;
64868;SDS011;51349;52.424;10.840;2022-10-31T17:44:36;25.25;;;16.98;;
64868;SDS011;51349;52.424;10.840;2022-10-31T17:49:37;32.08;;;18.10;;
64868;SDS011;51349;52.424;10.840;2022-10-31T17:54:37;27.42;;;16.52;;
64868;SDS011;51349;52.424;10.840;2022-10-31T17:59:38;28.35;;;16.90;;
64868;SDS011;51349;52.424;10.840;2022-10-31T18:04:42;49.95;;;25.73;;
64868;SDS011;51349;52.424;10.840;2022-10-31T18:09:42;56.33;;;28.23;;
64868;SDS011;51349;52.424;10.840;2022-10-31T18:14:43;56.67;;;28.65;;
64868;SDS011;51349;52.424;10.840;2022-10-31T18:19:46;49.40;;;27.10;;
64868;SDS011;51349;52.424;10.840;2022-10-31T18:24:47;47.17;;;25.83;;
64868;SDS011;51349;52.424;10.840;2022-10-31T18:29:47;47.30;;;28.08;;
64868;SDS011;51349;52.424;10.840;2022-10-31T18:34:48;44.13;;;24.27;;
64868;SDS011;51349;52.424;10.840;2022-10-31T18:39:49;47.45;;;25.02;;
64868;SDS011;51349;52.424;10.840;2022-10-31T18:44:49;51.33;;;26.13;;
64868;SDS011;51349;52.424;10.840;2022-10-31T18:49:50;43.70;;;25.67;;
64868;SDS011;51349;52.424;10.840;2022-10-31T18:54:51;49.80;;;26.27;;
64868;SDS011;51349;52.424;10.840;2022-10-31T18:59:51;47.13;;;25.75;;
64868;SDS011;51349;52.424;10.840;2022-10-31T19:04:52;42.83;;;23.70;;
64868;SDS011;51349;52.424;10.840;2022-10-31T19:09:53;46.20;;;24.70;;
64868;SDS011;51349;52.424;10.840;2022-10-31T19:14:53;45.83;;;26.33;;
64868;SDS011;51349;52.424;10.840;2022-10-31T19:19:54;48.10;;;25.58;;
64868;SDS011;51349;52.424;10.840;2022-10-31T19:24:54;44.65;;;24.48;;
64868;SDS011;51349;52.424;10.840;2022-10-31T19:29:55;45.47;;;25.13;;
64868;SDS011;51349;52.424;10.840;2022-10-31T19:34:56;42.92;;;22.85;;
64868;SDS011;51349;52.424;10.840;2022-10-31T19:39:56;44.22;;;24.38;;
64868;SDS011;51349;52.424;10.840;2022-10-31T19:44:57;44.53;;;25.92;;
64868;SDS011;51349;52.424;10.840;2022-10-31T19:49:58;51.72;;;28.50;;
64868;SDS011;51349;52.424;10.840;2022-10-31T19:54:59;49.65;;;27.13;;
64868;SDS011;51349;52.424;10.840;2022-10-31T19:59:59;49.83;;;26.98;;
64868;SDS011;51349;52.424;10.840;2022-10-31T20:05:00;49.33;;;26.33;;
64868;SDS011;51349;52.424;10.840;2022-10-31T20:10:00;49.65;;;25.08;;
64868;SDS011;51349;52.424;10.840;2022-10-31T20:15:01;45.67;;;24.33;;
64868;SDS011;51349;52.424;10.840;2022-10-31T20:20:02;51.40;;;27.27;;
64868;SDS011;51349;52.424;10.840;2022-10-31T20:25:11;51.72;;;27.33;;
64868;SDS011;51349;52.424;10.840;2022-10-31T20:30:12;48.67;;;26.08;;
64868;SDS011;51349;52.424;10.840;2022-10-31T20:35:12;47.42;;;25.88;;
64868;SDS011;51349;52.424;10.840;2022-10-31T20:40:16;49.67;;;28.48;;
64868;SDS011;51349;52.424;10.840;2022-10-31T20:45:17;45.88;;;25.77;;
64868;SDS011;51349;52.424;10.840;2022-10-31T20:50:17;49.75;;;27.98;;
64868;SDS011;51349;52.424;10.840;2022-10-31T20:55:18;49.92;;;27.85;;
64868;SDS011;51349;52.424;10.840;2022-10-31T21:00:19;49.20;;;26.85;;
64868;SDS011;51349;52.424;10.840;2022-10-31T21:05:19;49.20;;;28.25;;
64868;SDS011;51349;52.424;10.840;2022-10-31T21:10:20;51.15;;;28.15;;
64868;SDS011;51349;52.424;10.840;2022-10-31T21:15:21;46.28;;;26.98;;
64868;SDS011;51349;52.424;10.840;2022-10-31T21:20:24;50.42;;;27.70;;
64868;SDS011;51349;52.424;10.840;2022-10-31T21:25:25;48.85;;;28.30;;
64868;SDS011;51349;52.424;10.840;2022-10-31T21:30:28;44.90;;;26.63;;
64868;SDS011;51349;52.424;10.840;2022-10-31T21:35:29;49.63;;;26.40;;
64868;SDS011;51349;52.424;10.840;2022-10-31T21:40:29;56.13;;;29.33;;
64868;SDS011;51349;52.424;10.840;2022-10-31T21:45:30;53.08;;;28.92;;
64868;SDS011;51349;52.424;10.840;2022-10-31T21:50:33;53.20;;;31.15;;
64868;SDS011;51349;52.424;10.840;2022-10-31T21:55:34;52.83;;;29.33;;
64868;SDS011;51349;52.424;10.840;2022-10-31T22:00:35;55.28;;;30.15;;
64868;SDS011;51349;52.424;10.840;2022-10-31T22:05:35;54.42;;;30.20;;
64868;SDS011;51349;52.424;10.840;2022-10-31T22:10:36;54.78;;;32.80;;
64868;SDS011;51349;52.424;10.840;2022-10-31T22:15:36;52.78;;;30.65;;
64868;SDS011;51349;52.424;10.840;2022-10-31T22:20:37;57.47;;;32.08;;
64868;SDS011;51349;52.424;10.840;2022-10-31T22:25:38;55.20;;;32.20;;
64868;SDS011;51349;52.424;10.840;2022-10-31T22:30:38;58.55;;;32.60;;
64868;SDS011;51349;52.424;10.840;2022-10-31T22:35:39;63.25;;;33.95;;
64868;SDS011;51349;52.424;10.840;2022-10-31T22:40:39;60.42;;;32.90;;
64868;SDS011;51349;52.424;10.840;2022-10-31T22:45:40;60.95;;;34.33;;
64868;SDS011;51349;52.424;10.840;2022-10-31T22:50:40;60.53;;;34.75;;
64868;SDS011;51349;52.424;10.840;2022-10-31T22:55:41;59.08;;;34.97;;
64868;SDS011;51349;52.424;10.840;2022-10-31T23:00:42;57.58;;;32.33;;
64868;SDS011;51349;52.424;10.840;2022-10-31T23:05:42;58.10;;;31.95;;
64868;SDS011;51349;52.424;10.840;2022-10-31T23:10:43;56.45;;;33.05;;
64868;SDS011;51349;52.424;10.840;2022-10-31T23:15:44;60.80;;;34.92;;
64868;SDS011;51349;52.424;10.840;2022-10-31T23:20:49;54.15;;;31.58;;
64868;SDS011;51349;52.424;10.840;2022-10-31T23:25:52;52.70;;;31.10;;
64868;SDS011;51349;52.424;10.840;2022-10-31T23:31:12;54.13;;;30.98;;
64868;SDS011;51349;52.424;10.840;2022-10-31T23:36:13;52.33;;;29.88;;
64868;SDS011;51349;52.424;10.840;2022-10-31T23:41:16;53.25;;;31.75;;
64868;SDS011;51349;52.424;10.840;2022-10-31T23:46:17;54.78;;;30.67;;
64868;SDS011;51349;52.424;10.840;2022-10-31T23:51:18;47.97;;;31.00;;
64868;SDS011;51349;52.424;10.840;2022-10-31T23:56:18;44.33;;;27.95;;
